TRLO2: Red River Nr Terral, OK

Data processed at Sun Jun 24 2018 23:07


All information presented herein is the property of the government of the United States of America and may be revised or deleted at any time without prior notice.
Dissemination of this information without the expressed written consent of the Public Affairs Office, Tulsa District U.S. Army Corps of Engineers is strictly prohibited.
These data are gathered electronically and, as presented, have not undergone any form of quality control. These data are not guaranteed to be valid or correct.
Go to home page.
Go to station list.

Upstream stations:

Downstream station:
Previous Day
Next Day
Current Day
    
SHEF ID:       TRLO2     Red Rv nr Terral, OK
STATION TYPE:  

               PRECIP     STAGE  RIV-FLOW   VOLTAGE  BAT-LOAD
                   in        ft       cfs      volt      volt
              Ccp-Rev   Ccp-Rev   Ccp-Rev   Ccp-Rev   Ccp-Rev
(US/Central)
06/22 00:00      0.00      7.27       533     13.10     12.71
06/22 01:00      0.00      7.27       533     13.10     12.65
06/22 02:00      0.00      7.28       538     13.10     12.65
06/22 03:00      0.00      7.27       533     13.00     12.65
06/22 04:00      0.00      7.26       529     13.00     12.60
06/22 05:00      0.00      7.27       533     13.00     12.60
06/22 06:00      0.00      7.26       529     13.00     12.60
06/22 07:00      0.00      7.27       533     13.00     12.60
06/22 08:00      0.00      7.27       533     13.40     12.60
06/22 09:00      0.00      7.24       521     13.70     13.00
06/22 10:00      0.00      7.26       529     14.10     13.18
06/22 11:00      0.00      7.26       529     13.80     13.30
06/22 12:00      0.00      7.22       513     13.70     13.24
06/22 13:00      0.00      7.26       529     13.50     13.30
06/22 14:00      0.00      7.26       529     13.40     13.18
06/22 15:00      0.00      7.26       529     13.40     13.07
06/22 16:00      0.00      7.24       521     13.30     13.00
06/22 17:00      0.00      7.24       521     13.30     12.95
06/22 18:00      0.00      7.18       496     13.30     13.00
06/22 19:00      0.00      7.23       517     13.40     12.89
06/22 20:00      0.00      7.19       500     13.30     12.89
06/22 21:00      0.00      7.17       492     13.20     12.89
06/22 22:00      0.00      7.16       488     13.20     12.77
06/22 23:00      0.00      7.18       496     13.20     12.77